Terminal Aerodrome Forecast
Issued by NWS

Home | Current Version | Previous Version | Text Only | Print | Product List | Glossary On
Versions: 1 2 3 4 5 6 7 8 9 10 11 12 13 14
000
FTUS42 KMHX 011700
TAFPGV
TAF
KPGV 011730Z 0118/0218 22010KT P6SM BKN100
     FM020100 18010KT P6SM OVC040
     FM020600 19010G15KT 5SM -RA OVC020
     FM021200 22017G25KT 5SM -RA SCT007 OVC015
      AMD LTD TO CLD VIS AND WIND=

USA.gov is the U.S. government's official web portal to all federal, state and local government web resources and services.